Portada
METAR-TAF:

METAR-TAF

Aeroports :

Casals, França

latitud: 44-32N, longitud: 001-08W, altitud: 25 m

Observació

L'informe es va fer fa 31 minuts, a les 18:00 UTC
Vent 4 kt del Nord
Temperatura 17°C
Humitat 72%
Pressió 1019 hPa
Visibilitat 10 km o més
sense núvols per sota de 1500 mi sense presència de cumulonimbus.

METAR: LFBC 191800Z AUTO 35004KT CAVOK 17/12 Q1019 NOSIG

Hora: 20:31 (18:31 UTC)

Pronòstic

L'informe es va fer fa 41 minuts, a les 17:50 UTC
Pronòstic vàlid del 19 a les 17 UTC al 20 a les 15 UTC
Vent 5 kt del Nord/Nord-Est
Visibilitat 10 km o més
sense núvols per sota de 1500 mi sense presència de cumulonimbus.
Temporalment
l' 20 a les 03 UTC al 20 a les 08 UTC
Visibilitat: 0500 m
boira

TAF: LFBC 191750Z 1917/2015 02005KT CAVOK TEMPO 2003/2008 0500 FG

Observacions i pronòstics meteorològics de més de 4000 aeroports (METAR i TAF).

Les estacions disponibles són els punts grocs i vermells al mapa.

Posi el ratolí al punt desitjat per veure el nom de l'estació.

Feu clic per veure les observacions i els pronòstics meteorològics.

Per canviar el mapa: feu clic els botons verds amb una creu de color negre per apropar; al botó verd amb un guió per allunyar la imatge; o en les fletxes verdes per a mapes adjacents.


METAR-TAF: